Strona główna
METAR-TAF:

METAR-TAF

Lotnisko :

Capital City Airport

Frankfort, Kentucky, Stany Zjednoczone

Szerokość geograficzna: 38-11-05N, Długość geograficzna: 084-54-12W, wysokość: 245 m

Aktualna obserwacja pogody

Raport powstał 17 minut temu, godzina 12:53 UTC
Wiatr 16 kt od południe w porywach dochodzący do 25 kt
Temperatura 11°C
Wilgotność 47%
Ciśnienie 1016 hPa
Widzialność: 16.1 km
Zachmurzenie całkowite na wysokości 3400 ft
słaby deszcz

METAR: KFFT 181253Z AUTO 19016G25KT 10SM -RA OVC034 11/00 A2999 RMK AO2 PK WND 20033/1239 RAB52 SLP156 P0000 T01060000

czas: 08:10 (13:10 UTC)


TAF: brakujący

Obserwacja i prognoza pogody dla ponad 4000 lotnisk (raport METAR i TAF).

Dostępne stacje oznaczono żółtymi i czerwonymi punktami na mapie.

Najedź kursorem aby zobaczyć nazwę stacji.

Kliknij aby zobaczyć obserwacje i prognozy pogody.

Aby zmienić mapę: kliknij na zielony przycisk z czarnym krzyżykiem, aby powiększyć; na zielony przycisk z myślnikiem, aby pomniejszyć; na zielone strzałki, aby przejść do map sąsiednich.


METAR-TAF: